Decoded Metar for VGHS ( in ) (IATA:) | Meteo·Mobile Aviation Weather
aviador You're here:

VGHS Decoded Metar

in
Report Time2019-02-17 08:00:00
UTC Time2019-02-17 08:33:03
Flight Rules ifr IFR
Wind280° at 04 kt
W.Decomp.*RWY 32: 3.1 kt HW 2.6 kt LCW
W.Rank280° ranks 13
Current wind is below 280° avg. (5.9)
Visibility4000 m
Phenomena:Haze
Clouds:Scattered 015 Hf
Broken 100 Hf
Expected CloudBase > 3,600 ft AGL from Temp-Dew spread
Ceiling10,000 ft
Temp25°C
Dew Point16°C (57% RH)
QNH1010 hPa
Raw Report
METAR VGHS 170800Z 28004KT 4000 HZ SCT015 BKN100 25/16 Q1010 NOSIG=

Extra information for VGHS:More info

Social comments